Time;durP1;ratioP1;P1;durP2;ratioP2;P2;SDS_P1;SDS_P2;PMS_P1;PMS_P2;Temp;Humidity;BMP_temperature;BMP_pressure;BME280_temperature;BME280_humidity;BME280_pressure;Samples;Min_cycle;Max_cycle;Signal;HPM_P1;HPM_P2
2024/01/14 00:01:30;;;;;;;;;40.33;35.00;;;;;;;;5071097;28;8815;-84
2024/01/14 00:03:59;;;;;;;;;46.00;43.33;;;;;;;;5070262;28;8851;-85
2024/01/14 00:06:27;;;;;;;;;48.33;41.33;;;;;;;;5067865;28;8839;-82
2024/01/14 00:08:53;;;;;;;;;36.67;36.67;;;;;;;;5068671;28;9009;-84
2024/01/14 00:11:20;;;;;;;;;47.33;40.67;;;;;;;;5068475;28;9613;-84
2024/01/14 00:13:47;;;;;;;;;46.33;39.00;;;;;;;;5069017;28;9013;-84
2024/01/14 00:16:15;;;;;;;;;43.67;34.33;;;;;;;;5070113;28;8835;-84
2024/01/14 00:18:42;;;;;;;;;35.00;33.67;;;;;;;;5071888;28;8989;-84
2024/01/14 00:21:11;;;;;;;;;44.00;39.33;;;;;;;;5069810;28;8874;-84
2024/01/14 00:23:38;;;;;;;;;25.00;23.33;;;;;;;;5068997;28;8851;-85
2024/01/14 00:26:05;;;;;;;;;33.67;32.33;;;;;;;;5071853;28;8882;-85
2024/01/14 00:28:33;;;;;;;;;35.67;32.33;;;;;;;;5073108;28;8867;-85
2024/01/14 00:31:00;;;;;;;;;31.33;28.33;;;;;;;;5072103;28;8791;-86
2024/01/14 00:33:27;;;;;;;;;43.33;31.67;;;;;;;;5071913;28;8862;-84
2024/01/14 00:35:55;;;;;;;;;34.33;28.33;;;;;;;;5070812;28;9012;-86
2024/01/14 00:38:29;;;;;;;;;27.33;24.67;;;;;;;;5071684;28;8863;-85
2024/01/14 00:40:57;;;;;;;;;31.67;31.00;;;;;;;;5061209;28;8866;-84
2024/01/14 00:43:24;;;;;;;;;37.33;36.33;;;;;;;;5071446;28;9209;-84
2024/01/14 00:45:51;;;;;;;;;36.00;36.00;;;;;;;;5072252;28;8863;-85
2024/01/14 00:48:18;;;;;;;;;37.33;35.00;;;;;;;;5072638;28;8875;-84
2024/01/14 00:50:46;;;;;;;;;34.33;34.33;;;;;;;;5071834;28;8855;-85
2024/01/14 00:53:13;;;;;;;;;27.67;27.67;;;;;;;;5073424;28;8850;-85
2024/01/14 00:55:42;;;;;;;;;39.00;33.67;;;;;;;;5073024;28;8863;-86
2024/01/14 00:58:09;;;;;;;;;38.33;34.00;;;;;;;;5075267;28;8897;-86
2024/01/14 01:00:36;;;;;;;;;34.67;33.67;;;;;;;;5076816;28;8793;-86
2024/01/14 01:03:04;;;;;;;;;38.67;36.33;;;;;;;;5077554;28;8981;-85
2024/01/14 01:05:32;;;;;;;;;30.67;28.00;;;;;;;;5076925;28;8858;-85
2024/01/14 01:08:02;;;;;;;;;31.00;29.67;;;;;;;;5075406;28;8847;-85
2024/01/14 01:10:32;;;;;;;;;35.33;33.00;;;;;;;;5074201;28;8867;-85
2024/01/14 01:13:01;;;;;;;;;40.67;31.00;;;;;;;;5074661;28;8847;-84
2024/01/14 01:15:28;;;;;;;;;35.33;33.67;;;;;;;;5062805;28;8861;-84
2024/01/14 01:17:56;;;;;;;;;32.67;32.67;;;;;;;;5072331;28;9686;-85
2024/01/14 01:20:23;;;;;;;;;40.00;39.67;;;;;;;;5075111;28;8951;-85
2024/01/14 01:22:51;;;;;;;;;35.33;35.33;;;;;;;;5069314;28;8867;-84
2024/01/14 01:25:18;;;;;;;;;36.33;36.33;;;;;;;;5072158;28;9323;-85
2024/01/14 01:27:45;;;;;;;;;34.00;32.67;;;;;;;;5071206;28;8855;-84
2024/01/14 01:30:14;;;;;;;;;40.33;33.67;;;;;;;;5066255;28;8870;-85
2024/01/14 01:32:42;;;;;;;;;41.67;39.33;;;;;;;;5069540;28;8987;-83
2024/01/14 01:35:09;;;;;;;;;40.67;40.00;;;;;;;;5070515;28;8859;-84
2024/01/14 01:37:36;;;;;;;;;36.33;36.33;;;;;;;;5066141;28;8854;-83
2024/01/14 01:40:05;;;;;;;;;42.33;38.00;;;;;;;;5063191;28;8852;-83
2024/01/14 01:42:34;;;;;;;;;38.33;38.33;;;;;;;;5072839;28;8970;-85
2024/01/14 01:45:01;;;;;;;;;38.00;36.67;;;;;;;;5063444;28;8885;-85
2024/01/14 01:47:31;;;;;;;;;44.00;41.67;;;;;;;;5065456;28;8849;-84
2024/01/14 01:49:58;;;;;;;;;47.00;39.67;;;;;;;;5071871;28;8846;-84
2024/01/14 01:52:26;;;;;;;;;38.33;36.33;;;;;;;;5058612;28;8911;-85
2024/01/14 01:54:54;;;;;;;;;33.67;33.67;;;;;;;;5070049;28;8846;-84
2024/01/14 01:57:23;;;;;;;;;39.00;38.67;;;;;;;;5066788;28;9628;-84
2024/01/14 01:59:50;;;;;;;;;45.67;43.67;;;;;;;;5070798;28;8931;-84
2024/01/14 02:02:18;;;;;;;;;39.67;37.67;;;;;;;;5060701;28;8797;-84
2024/01/14 02:04:47;;;;;;;;;33.00;33.00;;;;;;;;5066793;28;8875;-84
2024/01/14 02:07:14;;;;;;;;;35.67;35.67;;;;;;;;5070896;28;8835;-85
2024/01/14 02:09:42;;;;;;;;;36.67;36.67;;;;;;;;5070039;28;8851;-86
2024/01/14 02:12:09;;;;;;;;;53.00;44.33;;;;;;;;5069729;28;8863;-85
2024/01/14 02:14:37;;;;;;;;;40.33;39.33;;;;;;;;5069752;28;8981;-85
2024/01/14 02:17:04;;;;;;;;;30.00;30.00;;;;;;;;5070232;28;8855;-85
2024/01/14 02:19:31;;;;;;;;;42.00;40.33;;;;;;;;5069764;28;8855;-85
2024/01/14 02:22:09;;;;;;;;;38.00;37.00;;;;;;;;5070791;28;8855;-84
2024/01/14 02:24:38;;;;;;;;;39.00;36.33;;;;;;;;5069753;28;8894;-84
2024/01/14 02:27:05;;;;;;;;;43.67;41.00;;;;;;;;5069888;28;8874;-84
2024/01/14 02:29:33;;;;;;;;;37.00;36.33;;;;;;;;5058152;28;8855;-84
2024/01/14 02:32:00;;;;;;;;;37.67;36.00;;;;;;;;5068329;28;8817;-84
2024/01/14 02:34:29;;;;;;;;;40.00;34.33;;;;;;;;5070650;28;8843;-85
2024/01/14 02:36:56;;;;;;;;;33.33;32.00;;;;;;;;5070047;28;8855;-85
2024/01/14 02:39:24;;;;;;;;;39.33;39.33;;;;;;;;5071990;28;8881;-86
2024/01/14 02:41:52;;;;;;;;;36.67;36.33;;;;;;;;5075465;28;8931;-86
2024/01/14 02:44:20;;;;;;;;;40.00;37.67;;;;;;;;5077646;28;8879;-84
2024/01/14 02:46:47;;;;;;;;;42.00;33.67;;;;;;;;5070620;28;8850;-84
2024/01/14 02:49:14;;;;;;;;;40.33;39.67;;;;;;;;5070520;28;8865;-82
2024/01/14 02:51:42;;;;;;;;;36.33;34.00;;;;;;;;5061483;28;8835;-84
2024/01/14 02:54:09;;;;;;;;;33.33;33.33;;;;;;;;5078371;28;8959;-86
2024/01/14 02:56:36;;;;;;;;;33.67;33.67;;;;;;;;5075448;28;8877;-83
2024/01/14 02:59:05;;;;;;;;;31.00;28.67;;;;;;;;5080190;28;8857;-83
2024/01/14 03:01:32;;;;;;;;;30.33;30.33;;;;;;;;5069927;28;8822;-83
2024/01/14 03:04:00;;;;;;;;;34.33;33.67;;;;;;;;5072668;28;8932;-85
2024/01/14 03:06:27;;;;;;;;;33.67;33.67;;;;;;;;5071598;28;8888;-84
2024/01/14 03:08:55;;;;;;;;;38.67;37.00;;;;;;;;5062011;28;8922;-84
2024/01/14 03:11:22;;;;;;;;;34.33;31.00;;;;;;;;5058675;28;8877;-84
2024/01/14 03:13:49;;;;;;;;;46.33;39.33;;;;;;;;5059941;28;8981;-84
2024/01/14 03:16:19;;;;;;;;;37.33;37.33;;;;;;;;5064379;28;9004;-84
2024/01/14 03:18:47;;;;;;;;;28.67;28.67;;;;;;;;5062750;28;8893;-85
2024/01/14 03:21:18;;;;;;;;;40.00;38.67;;;;;;;;5068786;28;8863;-85
2024/01/14 03:23:49;;;;;;;;;32.00;31.33;;;;;;;;5070519;28;8859;-86
2024/01/14 03:26:16;;;;;;;;;41.33;36.33;;;;;;;;5055990;28;8851;-85
2024/01/14 03:28:44;;;;;;;;;40.00;37.00;;;;;;;;5073412;28;8859;-84
2024/01/14 03:31:14;;;;;;;;;32.67;32.67;;;;;;;;5071934;28;8791;-83
2024/01/14 03:33:42;;;;;;;;;35.00;35.00;;;;;;;;5070653;28;8875;-84
2024/01/14 03:36:12;;;;;;;;;46.00;41.33;;;;;;;;5068782;28;9582;-84
2024/01/14 03:38:40;;;;;;;;;44.33;40.33;;;;;;;;5068491;28;8854;-84
2024/01/14 03:41:07;;;;;;;;;35.67;33.00;;;;;;;;5067060;28;8879;-85
2024/01/14 03:43:34;;;;;;;;;37.67;37.67;;;;;;;;5068248;28;8886;-84
2024/01/14 03:46:02;;;;;;;;;42.33;38.33;;;;;;;;5069304;28;8928;-83
2024/01/14 03:48:29;;;;;;;;;34.67;34.33;;;;;;;;5070033;28;8843;-85
2024/01/14 03:50:58;;;;;;;;;43.00;40.00;;;;;;;;5070602;28;8890;-84
2024/01/14 03:53:25;;;;;;;;;43.00;40.00;;;;;;;;5066171;28;8834;-85
2024/01/14 03:55:52;;;;;;;;;43.67;41.33;;;;;;;;5063455;28;8951;-85
2024/01/14 03:58:20;;;;;;;;;39.00;37.67;;;;;;;;5057264;28;8844;-85
2024/01/14 04:00:47;;;;;;;;;32.33;32.33;;;;;;;;5068564;28;8773;-85
2024/01/14 04:03:14;;;;;;;;;42.00;36.67;;;;;;;;5073045;28;8985;-85
2024/01/14 04:05:42;;;;;;;;;33.67;31.67;;;;;;;;5072595;28;8886;-86
2024/01/14 04:08:10;;;;;;;;;34.33;34.33;;;;;;;;5073237;28;8881;-84
2024/01/14 04:10:38;;;;;;;;;36.00;33.00;;;;;;;;5072276;28;8882;-85
2024/01/14 04:13:05;;;;;;;;;34.33;32.67;;;;;;;;5062205;28;8889;-85
2024/01/14 04:15:32;;;;;;;;;38.00;34.33;;;;;;;;5072364;28;8877;-85
2024/01/14 04:18:00;;;;;;;;;38.67;38.67;;;;;;;;5072083;28;8877;-84
2024/01/14 04:20:27;;;;;;;;;45.00;42.00;;;;;;;;5072002;28;8875;-85
2024/01/14 04:22:54;;;;;;;;;38.67;35.33;;;;;;;;5073322;28;8851;-84
2024/01/14 04:25:23;;;;;;;;;42.00;40.67;;;;;;;;5073593;28;8866;-85
2024/01/14 04:27:50;;;;;;;;;35.67;32.67;;;;;;;;5076922;28;8985;-86
2024/01/14 04:30:18;;;;;;;;;40.00;38.00;;;;;;;;5075611;28;8878;-84
2024/01/14 04:32:45;;;;;;;;;40.00;38.67;;;;;;;;5065818;28;8867;-83
2024/01/14 04:35:12;;;;;;;;;36.33;31.67;;;;;;;;5074407;28;9732;-86
2024/01/14 04:37:40;;;;;;;;;41.67;36.33;;;;;;;;5065995;28;8888;-85
2024/01/14 04:40:08;;;;;;;;;37.33;32.67;;;;;;;;5066850;28;8873;-85
2024/01/14 04:42:37;;;;;;;;;45.67;39.67;;;;;;;;5070973;28;8851;-85
2024/01/14 04:45:05;;;;;;;;;38.00;37.00;;;;;;;;5074215;28;8863;-85
2024/01/14 04:47:32;;;;;;;;;36.33;36.33;;;;;;;;5063701;28;8868;-86
2024/01/14 04:50:00;;;;;;;;;35.67;31.67;;;;;;;;5075407;28;8892;-85
2024/01/14 04:52:27;;;;;;;;;33.33;32.00;;;;;;;;5075051;28;8881;-83
2024/01/14 04:54:54;;;;;;;;;45.67;40.00;;;;;;;;5071912;28;9005;-85
2024/01/14 04:57:24;;;;;;;;;34.00;32.00;;;;;;;;5070937;28;9707;-84
2024/01/14 04:59:53;;;;;;;;;43.67;40.00;;;;;;;;5069335;28;8859;-84
2024/01/14 05:02:22;;;;;;;;;38.00;36.67;;;;;;;;5069159;28;8807;-84
2024/01/14 05:04:50;;;;;;;;;36.67;36.67;;;;;;;;5069531;28;8875;-85
2024/01/14 05:07:17;;;;;;;;;36.33;35.67;;;;;;;;5070155;28;8846;-84
2024/01/14 05:09:45;;;;;;;;;39.67;36.33;;;;;;;;5059444;28;8878;-84
2024/01/14 05:12:12;;;;;;;;;47.67;39.67;;;;;;;;5067494;28;8847;-83
2024/01/14 05:14:39;;;;;;;;;29.33;29.33;;;;;;;;5070777;28;8850;-84
2024/01/14 05:17:08;;;;;;;;;34.00;31.67;;;;;;;;5068727;28;8863;-84
2024/01/14 05:19:35;;;;;;;;;40.33;39.33;;;;;;;;5070563;28;9005;-84
2024/01/14 05:22:02;;;;;;;;;37.33;37.33;;;;;;;;5069475;28;8855;-83
2024/01/14 05:24:32;;;;;;;;;39.67;34.33;;;;;;;;5070940;28;8883;-85
2024/01/14 05:27:05;;;;;;;;;47.33;42.33;;;;;;;;5068042;28;8868;-82
2024/01/14 05:29:33;;;;;;;;;41.33;36.67;;;;;;;;5071134;28;8859;-82
2024/01/14 05:32:03;;;;;;;;;37.00;37.00;;;;;;;;5070609;28;8901;-84
2024/01/14 05:34:34;;;;;;;;;41.33;37.33;;;;;;;;5069382;28;8886;-85
2024/01/14 05:37:02;;;;;;;;;42.67;40.33;;;;;;;;5071491;28;8909;-84
2024/01/14 05:39:31;;;;;;;;;40.67;39.00;;;;;;;;5072364;28;8863;-85
2024/01/14 05:41:58;;;;;;;;;41.67;39.00;;;;;;;;5067702;28;8878;-85
2024/01/14 05:44:26;;;;;;;;;46.67;43.00;;;;;;;;5070591;28;8881;-85
2024/01/14 05:46:54;;;;;;;;;33.33;32.67;;;;;;;;5071081;28;8850;-85
2024/01/14 05:49:22;;;;;;;;;52.33;45.00;;;;;;;;5072141;28;9294;-85
2024/01/14 05:51:50;;;;;;;;;33.00;32.00;;;;;;;;5072271;28;8866;-84
2024/01/14 05:54:18;;;;;;;;;37.67;37.67;;;;;;;;5080566;28;8865;-79
2024/01/14 05:56:46;;;;;;;;;44.33;41.33;;;;;;;;5086087;28;8917;-80
2024/01/14 05:59:13;;;;;;;;;46.33;38.33;;;;;;;;5073513;28;9713;-85
2024/01/14 06:01:40;;;;;;;;;27.00;25.33;;;;;;;;5070367;28;8803;-85
2024/01/14 06:04:08;;;;;;;;;29.33;27.33;;;;;;;;5069178;28;8912;-86
2024/01/14 06:06:35;;;;;;;;;44.33;40.67;;;;;;;;5070951;28;8861;-87
2024/01/14 06:09:07;;;;;;;;;45.00;39.00;;;;;;;;5068815;28;8862;-84
2024/01/14 06:11:34;;;;;;;;;49.00;40.00;;;;;;;;5060442;28;8855;-86
2024/01/14 06:14:02;;;;;;;;;34.33;32.67;;;;;;;;5071115;28;8992;-87
2024/01/14 06:16:32;;;;;;;;;38.67;38.33;;;;;;;;5074693;28;8978;-85
2024/01/14 06:19:02;;;;;;;;;42.67;40.67;;;;;;;;5075341;28;8981;-84
2024/01/14 06:21:29;;;;;;;;;45.00;40.33;;;;;;;;5076892;28;8869;-84
2024/01/14 06:23:56;;;;;;;;;44.33;42.33;;;;;;;;5075323;28;8851;-84
2024/01/14 06:26:25;;;;;;;;;48.33;44.33;;;;;;;;5071252;28;8993;-84
2024/01/14 06:28:53;;;;;;;;;45.00;41.33;;;;;;;;5072884;28;8885;-85
2024/01/14 06:31:20;;;;;;;;;41.33;40.67;;;;;;;;5073881;28;8909;-84
2024/01/14 06:33:49;;;;;;;;;32.33;32.33;;;;;;;;5074312;28;8843;-85
2024/01/14 06:36:19;;;;;;;;;36.33;35.33;;;;;;;;5074252;28;8865;-84
2024/01/14 06:38:45;;;;;;;;;41.67;38.67;;;;;;;;5062418;28;8886;-84
2024/01/14 06:41:20;;;;;;;;;43.00;40.00;;;;;;;;5072115;28;8862;-84
2024/01/14 06:43:49;;;;;;;;;42.00;39.67;;;;;;;;5070544;28;8998;-84
2024/01/14 06:46:17;;;;;;;;;51.00;43.00;;;;;;;;5065669;28;8859;-77
2024/01/14 06:48:44;;;;;;;;;51.00;42.67;;;;;;;;5071096;28;8945;-74
2024/01/14 06:51:11;;;;;;;;;54.67;45.00;;;;;;;;5068046;28;8901;-76
2024/01/14 06:53:39;;;;;;;;;56.00;47.33;;;;;;;;5067839;28;8866;-75
2024/01/14 06:56:06;;;;;;;;;46.00;44.33;;;;;;;;5067955;28;8850;-74
2024/01/14 06:58:34;;;;;;;;;52.00;47.00;;;;;;;;5065081;28;9027;-75
2024/01/14 07:01:04;;;;;;;;;47.00;45.33;;;;;;;;5069827;28;8890;-76
2024/01/14 07:03:34;;;;;;;;;46.67;41.00;;;;;;;;5071955;28;8870;-76
2024/01/14 07:06:02;;;;;;;;;48.00;43.00;;;;;;;;5068753;28;8938;-74
2024/01/14 07:08:29;;;;;;;;;51.33;46.67;;;;;;;;5067561;28;8863;-76
2024/01/14 07:11:00;;;;;;;;;65.25;54.75;;;;;;;;5068021;28;8851;-76
2024/01/14 07:13:27;;;;;;;;;32.67;32.00;;;;;;;;5065784;28;8881;-76
2024/01/14 07:15:54;;;;;;;;;62.33;49.00;;;;;;;;5063616;28;9619;-76
2024/01/14 07:18:24;;;;;;;;;51.67;45.00;;;;;;;;5059456;28;8912;-77
2024/01/14 07:20:51;;;;;;;;;35.33;32.33;;;;;;;;5066635;28;8874;-76
2024/01/14 07:23:19;;;;;;;;;52.67;45.67;;;;;;;;5066771;28;8862;-77
2024/01/14 07:25:46;;;;;;;;;36.00;35.67;;;;;;;;5066642;28;8859;-77
2024/01/14 07:28:16;;;;;;;;;53.67;46.33;;;;;;;;5067447;28;8902;-78
2024/01/14 07:30:43;;;;;;;;;60.33;50.67;;;;;;;;5066319;28;8922;-79
2024/01/14 07:33:10;;;;;;;;;43.00;40.33;;;;;;;;5067061;28;8858;-75
2024/01/14 07:35:39;;;;;;;;;40.00;40.00;;;;;;;;5067251;28;8850;-76
2024/01/14 07:38:06;;;;;;;;;40.33;37.00;;;;;;;;5070254;28;8847;-75
2024/01/14 07:40:33;;;;;;;;;37.67;31.67;;;;;;;;5060092;28;8851;-77
2024/01/14 07:43:02;;;;;;;;;37.00;36.00;;;;;;;;5072124;28;8869;-78
2024/01/14 07:45:29;;;;;;;;;25.33;23.67;;;;;;;;5072305;28;8839;-75
2024/01/14 07:47:57;;;;;;;;;47.67;43.33;;;;;;;;5071542;28;8884;-78
2024/01/14 07:50:27;;;;;;;;;52.00;45.67;;;;;;;;5071484;28;9732;-77
2024/01/14 07:52:55;;;;;;;;;61.67;50.33;;;;;;;;5070601;28;8835;-77
2024/01/14 07:55:23;;;;;;;;;39.33;39.00;;;;;;;;5072530;28;8862;-81
2024/01/14 07:57:50;;;;;;;;;51.67;42.00;;;;;;;;5071815;28;8993;-81
2024/01/14 08:00:18;;;;;;;;;43.00;41.33;;;;;;;;5070350;28;8989;-80
2024/01/14 08:02:45;;;;;;;;;34.67;33.67;;;;;;;;5072304;28;10164;-80
2024/01/14 08:05:12;;;;;;;;;39.67;36.67;;;;;;;;5073563;28;8912;-80
2024/01/14 08:07:39;;;;;;;;;45.67;42.33;;;;;;;;5073857;28;8843;-82
2024/01/14 08:10:12;;;;;;;;;36.00;35.67;;;;;;;;5075327;28;8851;-80
2024/01/14 08:12:39;;;;;;;;;38.00;35.00;;;;;;;;5074278;28;8961;-81
2024/01/14 08:15:07;;;;;;;;;48.00;40.33;;;;;;;;5062594;28;8849;-78
2024/01/14 08:17:39;;;;;;;;;36.00;35.00;;;;;;;;5072462;28;8977;-78
2024/01/14 08:20:12;;;;;;;;;37.00;37.00;;;;;;;;5067843;28;8892;-82
2024/01/14 08:22:39;;;;;;;;;45.00;41.33;;;;;;;;5072488;28;8846;-76
2024/01/14 08:25:09;;;;;;;;;38.00;38.00;;;;;;;;5071865;28;8870;-75
2024/01/14 08:27:37;;;;;;;;;35.00;31.67;;;;;;;;5070608;28;8933;-74
2024/01/14 08:30:06;;;;;;;;;40.00;38.33;;;;;;;;5070628;28;8924;-77
2024/01/14 08:32:34;;;;;;;;;34.67;33.00;;;;;;;;5067122;28;8855;-75
2024/01/14 08:35:01;;;;;;;;;32.33;29.00;;;;;;;;5062193;28;8837;-74
2024/01/14 08:37:30;;;;;;;;;33.00;33.00;;;;;;;;5066473;28;8853;-76
2024/01/14 08:39:58;;;;;;;;;38.00;38.00;;;;;;;;5064712;28;8975;-75
2024/01/14 08:42:33;;;;;;;;;54.00;46.33;;;;;;;;5070499;28;8835;-77
2024/01/14 08:45:00;;;;;;;;;31.67;28.00;;;;;;;;5072067;28;8831;-78
2024/01/14 08:47:27;;;;;;;;;36.00;35.00;;;;;;;;5072720;28;8854;-76
2024/01/14 08:49:55;;;;;;;;;30.67;30.67;;;;;;;;5069365;28;8837;-75
2024/01/14 08:52:22;;;;;;;;;33.00;33.00;;;;;;;;5055350;28;8868;-76
2024/01/14 08:54:49;;;;;;;;;26.33;26.33;;;;;;;;5070890;28;8843;-76
2024/01/14 08:57:16;;;;;;;;;26.67;26.67;;;;;;;;5066990;28;8965;-76
2024/01/14 08:59:45;;;;;;;;;36.67;34.33;;;;;;;;5062024;28;8866;-74
2024/01/14 09:02:12;;;;;;;;;44.00;36.67;;;;;;;;5054905;28;8777;-76
2024/01/14 09:04:39;;;;;;;;;39.67;39.67;;;;;;;;5057342;28;8863;-75
2024/01/14 09:07:06;;;;;;;;;37.67;36.67;;;;;;;;5070460;28;9622;-75
2024/01/14 09:09:34;;;;;;;;;32.00;31.33;;;;;;;;5071080;28;8875;-74
2024/01/14 09:12:02;;;;;;;;;31.33;31.33;;;;;;;;5065850;28;9690;-76
2024/01/14 09:14:29;;;;;;;;;34.00;33.67;;;;;;;;5053913;28;8851;-75
2024/01/14 09:16:58;;;;;;;;;33.33;32.00;;;;;;;;5062467;28;9966;-75
2024/01/14 09:19:25;;;;;;;;;48.33;44.00;;;;;;;;5069719;28;8989;-76
2024/01/14 09:21:52;;;;;;;;;46.67;41.67;;;;;;;;5069918;28;9605;-76
2024/01/14 09:24:20;;;;;;;;;45.00;42.00;;;;;;;;5057245;28;8859;-75
2024/01/14 09:26:47;;;;;;;;;49.00;42.00;;;;;;;;5069710;28;8858;-76
2024/01/14 09:29:14;;;;;;;;;35.67;34.00;;;;;;;;5070009;28;8873;-76
2024/01/14 09:31:45;;;;;;;;;40.67;38.33;;;;;;;;5068888;28;8814;-76
2024/01/14 09:34:14;;;;;;;;;41.33;39.33;;;;;;;;5069912;28;8862;-77
2024/01/14 09:36:41;;;;;;;;;41.67;40.33;;;;;;;;5067383;28;8854;-74
2024/01/14 09:39:10;;;;;;;;;42.00;40.00;;;;;;;;5069988;28;8855;-77
2024/01/14 09:41:44;;;;;;;;;26.00;26.00;;;;;;;;5069055;28;8831;-74
2024/01/14 09:44:14;;;;;;;;;42.00;40.67;;;;;;;;5068477;28;8855;-76
2024/01/14 09:46:42;;;;;;;;;38.00;37.00;;;;;;;;5069109;28;8839;-75
2024/01/14 09:49:11;;;;;;;;;40.33;38.00;;;;;;;;5069701;28;9005;-76
2024/01/14 09:51:41;;;;;;;;;42.33;37.00;;;;;;;;5069960;28;8873;-77
2024/01/14 09:54:09;;;;;;;;;47.00;44.00;;;;;;;;5070426;28;8977;-77
2024/01/14 09:56:38;;;;;;;;;33.67;33.67;;;;;;;;5070720;28;8885;-75
2024/01/14 09:59:06;;;;;;;;;35.33;34.33;;;;;;;;5072165;28;8869;-77
2024/01/14 10:01:35;;;;;;;;;29.00;29.00;;;;;;;;5072176;28;8831;-76
2024/01/14 10:04:03;;;;;;;;;40.00;40.00;;;;;;;;5070720;28;8849;-78
2024/01/14 10:06:31;;;;;;;;;43.67;40.00;;;;;;;;5060398;28;9636;-75
2024/01/14 10:09:02;;;;;;;;;29.67;29.00;;;;;;;;5067229;28;8870;-74
2024/01/14 10:11:31;;;;;;;;;28.00;26.00;;;;;;;;5071787;28;8831;-75
2024/01/14 10:14:00;;;;;;;;;40.67;37.33;;;;;;;;5069675;28;8916;-74
2024/01/14 10:16:27;;;;;;;;;36.00;35.33;;;;;;;;5060585;28;8857;-76
2024/01/14 10:18:56;;;;;;;;;30.00;28.33;;;;;;;;5065561;28;8866;-74
2024/01/14 10:21:24;;;;;;;;;39.00;37.67;;;;;;;;5069392;28;8840;-75
2024/01/14 10:23:51;;;;;;;;;35.33;35.33;;;;;;;;5068459;28;8924;-76
2024/01/14 10:26:23;;;;;;;;;38.33;34.33;;;;;;;;5068863;28;9727;-75
2024/01/14 10:28:50;;;;;;;;;33.33;32.67;;;;;;;;5068417;28;8854;-76
2024/01/14 10:31:18;;;;;;;;;44.33;39.00;;;;;;;;5066290;28;8917;-76
2024/01/14 10:33:46;;;;;;;;;31.67;31.00;;;;;;;;5066178;28;8859;-76
2024/01/14 10:36:13;;;;;;;;;32.67;31.67;;;;;;;;5068954;28;8854;-76
2024/01/14 10:38:40;;;;;;;;;41.33;37.00;;;;;;;;5066663;28;8863;-76
2024/01/14 10:41:07;;;;;;;;;41.00;37.00;;;;;;;;5068443;28;8893;-75
2024/01/14 10:43:36;;;;;;;;;35.00;35.00;;;;;;;;5067661;28;8862;-76
2024/01/14 10:46:04;;;;;;;;;37.00;36.00;;;;;;;;5071376;28;9740;-74
2024/01/14 10:48:37;;;;;;;;;40.67;39.00;;;;;;;;5066284;28;8866;-78
2024/01/14 10:51:06;;;;;;;;;35.67;32.00;;;;;;;;5069117;28;8878;-76
2024/01/14 10:53:49;;;;;;;;;23.33;21.67;;;;;;;;5068359;28;8872;-76
2024/01/14 10:56:17;;;;;;;;;36.67;35.67;;;;;;;;5069138;28;8936;-79
2024/01/14 10:58:47;;;;;;;;;39.33;37.33;;;;;;;;5071400;28;8875;-77
2024/01/14 11:01:16;;;;;;;;;42.00;40.67;;;;;;;;5070816;28;8826;-76
2024/01/14 11:03:44;;;;;;;;;39.33;39.33;;;;;;;;5076379;28;8885;-76
2024/01/14 11:06:12;;;;;;;;;62.67;44.67;;;;;;;;5070418;28;8858;-75
2024/01/14 11:08:40;;;;;;;;;45.00;42.00;;;;;;;;5074350;28;8863;-77
2024/01/14 11:11:10;;;;;;;;;40.33;36.67;;;;;;;;5070272;28;8931;-76
2024/01/14 11:13:40;;;;;;;;;38.00;37.00;;;;;;;;5065143;28;9601;-77
2024/01/14 11:16:16;;;;;;;;;50.00;41.67;;;;;;;;5063000;28;8922;-78
2024/01/14 11:18:48;;;;;;;;;32.33;32.33;;;;;;;;5062446;28;8975;-78
2024/01/14 11:21:26;;;;;;;;;44.67;39.33;;;;;;;;5072877;28;8855;-76
2024/01/14 11:23:53;;;;;;;;;29.33;29.33;;;;;;;;5066667;28;8843;-77
2024/01/14 11:26:21;;;;;;;;;40.00;39.33;;;;;;;;5061684;28;8881;-76
2024/01/14 11:28:48;;;;;;;;;52.00;44.00;;;;;;;;5059181;28;8959;-76
2024/01/14 11:31:17;;;;;;;;;45.00;42.67;;;;;;;;5063468;28;8804;-76
2024/01/14 11:33:46;;;;;;;;;48.67;43.33;;;;;;;;5066542;28;8843;-77
2024/01/14 11:36:14;;;;;;;;;52.33;44.33;;;;;;;;5092396;28;8843;-80
2024/01/14 11:38:56;;;;;;;;;36.67;34.00;;;;;;;;5067927;28;8881;-77
2024/01/14 11:41:34;;;;;;;;;38.00;36.33;;;;;;;;5068470;28;8920;-77
2024/01/14 11:44:05;;;;;;;;;45.67;39.00;;;;;;;;5070420;28;8847;-76
2024/01/14 11:46:46;;;;;;;;;46.00;40.67;;;;;;;;5070707;28;9052;-76
2024/01/14 11:49:18;;;;;;;;;44.67;40.00;;;;;;;;5067386;28;8872;-76
2024/01/14 11:51:53;;;;;;;;;43.00;38.33;;;;;;;;5068501;28;8878;-76
2024/01/14 11:54:20;;;;;;;;;33.67;32.00;;;;;;;;5056345;28;8873;-76
2024/01/14 11:56:47;;;;;;;;;43.33;37.67;;;;;;;;5063890;28;8873;-77
2024/01/14 11:59:17;;;;;;;;;41.00;38.33;;;;;;;;5061651;28;8913;-74
2024/01/14 12:01:45;;;;;;;;;37.67;34.00;;;;;;;;5067023;28;8823;-75
2024/01/14 12:04:12;;;;;;;;;47.67;40.67;;;;;;;;5057097;28;8860;-75
2024/01/14 12:06:41;;;;;;;;;41.33;40.33;;;;;;;;5067777;28;8865;-76
2024/01/14 12:09:17;;;;;;;;;41.67;37.33;;;;;;;;5067899;28;8966;-75
2024/01/14 12:11:47;;;;;;;;;31.33;29.67;;;;;;;;5067268;28;8847;-75
2024/01/14 12:14:14;;;;;;;;;42.67;39.00;;;;;;;;5066821;28;8869;-75
2024/01/14 12:16:42;;;;;;;;;40.67;39.67;;;;;;;;5056541;28;8949;-75
2024/01/14 12:19:16;;;;;;;;;44.00;41.00;;;;;;;;5064146;28;8862;-76
2024/01/14 12:21:43;;;;;;;;;43.33;39.33;;;;;;;;5068042;28;8847;-75
2024/01/14 12:24:12;;;;;;;;;36.33;33.00;;;;;;;;5071126;28;8854;-75
2024/01/14 12:26:40;;;;;;;;;48.00;43.67;;;;;;;;5071240;28;8850;-75
2024/01/14 12:29:07;;;;;;;;;37.67;34.33;;;;;;;;5071709;28;9780;-74
2024/01/14 12:31:36;;;;;;;;;45.00;40.33;;;;;;;;5071790;28;8876;-75
2024/01/14 12:34:05;;;;;;;;;54.67;44.00;;;;;;;;5072235;28;8869;-76
2024/01/14 12:36:35;;;;;;;;;48.67;44.00;;;;;;;;5072540;28;8843;-74
2024/01/14 12:39:03;;;;;;;;;42.33;40.00;;;;;;;;5073548;28;8859;-75
2024/01/14 12:41:30;;;;;;;;;40.33;38.33;;;;;;;;5070019;28;8887;-75
2024/01/14 12:43:58;;;;;;;;;40.00;39.00;;;;;;;;5070779;28;8855;-76
2024/01/14 12:46:25;;;;;;;;;48.00;44.00;;;;;;;;5068761;28;8880;-75
2024/01/14 12:48:52;;;;;;;;;55.33;47.33;;;;;;;;5070297;28;9663;-76
2024/01/14 12:51:20;;;;;;;;;49.33;45.67;;;;;;;;5069533;28;8853;-75
2024/01/14 12:53:54;;;;;;;;;47.33;43.00;;;;;;;;5069410;28;8889;-75
2024/01/14 12:56:23;;;;;;;;;53.67;46.00;;;;;;;;5070179;28;8876;-75
2024/01/14 12:58:51;;;;;;;;;58.67;45.67;;;;;;;;5070631;28;8940;-75
2024/01/14 13:01:19;;;;;;;;;50.00;42.33;;;;;;;;5068314;28;9504;-75
2024/01/14 13:03:47;;;;;;;;;61.33;45.00;;;;;;;;5070024;28;8874;-75
2024/01/14 13:06:14;;;;;;;;;57.33;46.67;;;;;;;;5069230;28;8888;-74
2024/01/14 13:08:42;;;;;;;;;54.00;45.33;;;;;;;;5069189;28;8839;-75
2024/01/14 13:11:10;;;;;;;;;58.33;45.67;;;;;;;;5068591;28;8873;-75
2024/01/14 13:13:38;;;;;;;;;57.33;46.67;;;;;;;;5069179;28;8884;-75
2024/01/14 13:16:05;;;;;;;;;59.67;50.33;;;;;;;;5065099;28;8880;-75
2024/01/14 13:18:32;;;;;;;;;58.00;46.00;;;;;;;;5063512;28;8847;-75
2024/01/14 13:21:00;;;;;;;;;59.67;46.67;;;;;;;;5070526;28;8873;-74
2024/01/14 13:23:27;;;;;;;;;58.00;43.67;;;;;;;;5069452;28;8892;-75
2024/01/14 13:25:54;;;;;;;;;61.67;47.67;;;;;;;;5070543;28;8855;-76
2024/01/14 13:28:23;;;;;;;;;60.00;49.00;;;;;;;;5069477;28;8863;-75
2024/01/14 13:30:52;;;;;;;;;54.67;45.67;;;;;;;;5058886;28;8799;-77
2024/01/14 13:33:19;;;;;;;;;63.67;48.67;;;;;;;;5071660;28;8953;-74
2024/01/14 13:35:46;;;;;;;;;61.00;45.67;;;;;;;;5073411;28;9033;-75
2024/01/14 13:38:14;;;;;;;;;54.67;46.67;;;;;;;;5072685;28;8855;-76
2024/01/14 13:40:41;;;;;;;;;55.33;47.33;;;;;;;;5070445;28;8851;-75
2024/01/14 13:43:10;;;;;;;;;59.33;48.00;;;;;;;;5071171;28;8839;-75
2024/01/14 13:45:39;;;;;;;;;53.33;42.33;;;;;;;;5062523;28;8843;-73
2024/01/14 13:48:07;;;;;;;;;57.00;46.67;;;;;;;;5073064;28;8879;-77
2024/01/14 13:50:34;;;;;;;;;61.67;49.67;;;;;;;;5072509;28;8855;-77
2024/01/14 13:53:01;;;;;;;;;44.00;37.67;;;;;;;;5065288;28;8867;-76
2024/01/14 13:55:29;;;;;;;;;62.33;46.67;;;;;;;;5070253;28;8915;-76
2024/01/14 13:57:56;;;;;;;;;59.33;48.00;;;;;;;;5069552;28;8933;-75
2024/01/14 14:00:24;;;;;;;;;68.33;50.00;;;;;;;;5069075;28;8931;-75
2024/01/14 14:02:53;;;;;;;;;46.00;35.33;;;;;;;;5068465;28;8871;-74
2024/01/14 14:05:20;;;;;;;;;60.67;44.33;;;;;;;;5062028;28;8873;-74
2024/01/14 14:07:47;;;;;;;;;55.00;46.33;;;;;;;;5068471;28;8977;-75
2024/01/14 14:10:16;;;;;;;;;54.00;44.00;;;;;;;;5068877;28;8885;-74
2024/01/14 14:12:43;;;;;;;;;58.00;48.00;;;;;;;;5059844;28;8924;-75
2024/01/14 14:15:11;;;;;;;;;53.33;47.00;;;;;;;;5062607;28;8854;-76
2024/01/14 14:17:38;;;;;;;;;63.33;51.33;;;;;;;;5055983;28;8872;-74
2024/01/14 14:20:08;;;;;;;;;59.00;49.00;;;;;;;;5070050;28;8893;-76
2024/01/14 14:22:35;;;;;;;;;53.67;42.00;;;;;;;;5069407;28;8851;-79
2024/01/14 14:25:05;;;;;;;;;65.00;47.00;;;;;;;;5071625;28;8924;-75
2024/01/14 14:27:32;;;;;;;;;54.00;44.67;;;;;;;;5071515;28;9716;-74
2024/01/14 14:30:02;;;;;;;;;53.33;46.00;;;;;;;;5068084;28;8874;-75
2024/01/14 14:32:29;;;;;;;;;48.00;40.67;;;;;;;;5056701;28;8914;-74
2024/01/14 14:34:57;;;;;;;;;37.33;34.67;;;;;;;;5068429;28;9663;-75
2024/01/14 14:37:26;;;;;;;;;54.00;43.67;;;;;;;;5056832;28;9655;-75